createdAt,value
2018-12-25T00:00:12.496Z,95195.56
2018-12-25T00:02:38.478Z,95199.14
2018-12-25T00:05:04.477Z,95198.22
2018-12-25T00:07:30.500Z,95202.62
2018-12-25T00:09:56.474Z,95212.44
2018-12-25T00:12:22.444Z,95226.77
2018-12-25T00:14:48.469Z,95220.84
2018-12-25T00:17:14.486Z,95233.73
2018-12-25T00:19:40.480Z,95237.42
2018-12-25T00:22:06.448Z,95238.22
2018-12-25T00:24:32.410Z,95232.41
2018-12-25T00:26:58.423Z,95236.09
2018-12-25T00:29:24.419Z,95241.30
2018-12-25T00:31:50.380Z,95238.33
2018-12-25T00:34:16.386Z,95248.98
2018-12-25T00:36:42.377Z,95244.16
2018-12-25T00:39:08.397Z,95250.31
2018-12-25T00:41:34.423Z,95241.91
2018-12-25T00:44:00.401Z,95241.72
2018-12-25T00:46:26.372Z,95237.42
2018-12-25T00:48:52.407Z,95239.66
2018-12-25T00:51:18.387Z,95250.39
2018-12-25T00:53:44.429Z,95245.90
2018-12-25T00:56:10.403Z,95238.53
2018-12-25T00:58:36.418Z,95249.06
2018-12-25T01:01:02.383Z,95245.68
2018-12-25T01:03:28.371Z,95253.16
2018-12-25T01:05:54.376Z,95252.75
2018-12-25T01:08:20.356Z,95245.68
2018-12-25T01:10:46.362Z,95259.81
2018-12-25T01:13:12.353Z,95260.31
2018-12-25T01:15:38.350Z,95245.59
2018-12-25T01:18:04.346Z,95258.48
2018-12-25T01:20:30.352Z,95265.64
2018-12-25T01:22:56.351Z,95272.29
2018-12-25T01:25:22.375Z,95276.28
2018-12-25T01:27:48.409Z,95279.05
2018-12-25T01:30:14.414Z,95284.27
2018-12-25T01:32:40.435Z,95282.44
2018-12-25T01:35:06.404Z,95286.52
2018-12-25T01:37:32.384Z,95282.21
2018-12-25T01:39:58.410Z,95283.84
2018-12-25T01:42:24.401Z,95289.70
2018-12-25T01:44:50.385Z,95296.85
2018-12-25T01:47:16.413Z,95297.69
2018-12-25T01:49:42.398Z,95290.20
2018-12-25T01:52:08.382Z,95288.78
2018-12-25T01:54:34.418Z,95291.45
2018-12-25T01:57:00.435Z,95296.66
2018-12-25T01:59:26.406Z,95293.16
2018-12-25T02:01:52.443Z,95292.36
2018-12-25T02:04:18.458Z,95286.62
2018-12-25T02:06:44.452Z,95289.28
2018-12-25T02:09:10.476Z,95287.04
2018-12-25T02:11:36.479Z,95284.57
2018-12-25T02:14:02.468Z,95279.05
2018-12-25T02:16:28.475Z,95281.91
2018-12-25T02:18:54.494Z,95288.03
2018-12-25T02:21:20.475Z,95294.38
2018-12-25T02:23:46.437Z,95286.81
2018-12-25T02:26:12.470Z,95284.05
2018-12-25T02:28:38.469Z,95298.27
2018-12-25T02:31:04.453Z,95301.87
2018-12-25T02:33:30.420Z,95295.30
2018-12-25T02:35:56.456Z,95305.94
2018-12-25T02:38:22.443Z,95300.92
2018-12-25T02:40:48.409Z,95289.06
2018-12-25T02:43:14.429Z,95294.47
2018-12-25T02:45:40.404Z,95298.98
2018-12-25T02:48:06.397Z,95301.12
2018-12-25T02:50:32.423Z,95311.88
2018-12-25T02:52:58.408Z,95304.80
2018-12-25T02:55:24.394Z,95308.30
2018-12-25T02:57:50.418Z,95301.73
2018-12-25T03:00:16.394Z,95288.42
2018-12-25T03:02:42.381Z,95291.00
2018-12-25T03:05:08.387Z,95284.77
2018-12-25T03:07:34.368Z,95297.54
2018-12-25T03:10:00.364Z,95295.48
2018-12-25T03:12:26.379Z,95303.97
2018-12-25T03:14:52.337Z,95299.59
2018-12-25T03:17:18.321Z,95305.22
2018-12-25T03:19:44.338Z,95304.80
2018-12-25T03:22:10.308Z,95290.28
2018-12-25T03:24:36.351Z,95298.15
2018-12-25T03:27:02.334Z,95296.41
2018-12-25T03:29:28.417Z,95319.55
2018-12-25T03:31:54.358Z,95327.31
2018-12-25T03:34:20.328Z,95331.72
2018-12-25T03:36:46.305Z,95328.72
2018-12-25T03:39:12.325Z,95314.20
2018-12-25T03:41:38.316Z,95303.97
2018-12-25T03:44:04.301Z,95303.97
2018-12-25T03:46:30.315Z,95326.59
2018-12-25T03:48:56.351Z,95339.47
2018-12-25T03:51:22.326Z,95341.80
2018-12-25T03:53:48.333Z,95340.58
2018-12-25T03:56:14.350Z,95342.74
2018-12-25T03:58:40.331Z,95333.92
2018-12-25T04:01:06.312Z,95348.98
2018-12-25T04:03:32.333Z,95341.91
2018-12-25T04:05:58.319Z,95358.18
2018-12-25T04:08:24.281Z,95371.06
2018-12-25T04:10:50.289Z,95372.59
2018-12-25T04:13:16.262Z,95370.34
2018-12-25T04:15:42.280Z,95372.51
2018-12-25T04:18:08.232Z,95373.61
2018-12-25T04:20:34.221Z,95395.20
2018-12-25T04:23:00.248Z,95392.66
2018-12-25T04:25:26.275Z,95404.21
2018-12-25T04:27:52.247Z,95409.84
2018-12-25T04:30:18.224Z,95416.19
2018-12-25T04:32:44.336Z,95424.36
2018-12-25T04:35:10.327Z,95414.55
2018-12-25T04:37:36.347Z,95408.39
2018-12-25T04:40:02.320Z,95415.95
2018-12-25T04:42:28.325Z,95414.32
2018-12-25T04:44:54.336Z,95429.38
2018-12-25T04:47:20.323Z,95432.94
2018-12-25T04:49:46.303Z,95442.75
2018-12-25T04:52:12.323Z,95435.37
2018-12-25T04:54:38.292Z,95446.44
2018-12-25T04:57:04.324Z,95445.83
2018-12-25T04:59:30.336Z,95440.28
2018-12-25T05:01:56.298Z,95451.34
2018-12-25T05:04:22.273Z,95457.91
2018-12-25T05:06:48.316Z,95448.59
2018-12-25T05:09:14.357Z,95444.38
2018-12-25T05:11:40.338Z,95459.51
2018-12-25T05:14:06.359Z,95476.61
2018-12-25T05:16:32.345Z,95472.73
2018-12-25T05:18:58.351Z,95478.63
2018-12-25T05:21:24.388Z,95485.62
2018-12-25T05:23:50.354Z,95497.67
2018-12-25T05:26:16.328Z,95499.83
2018-12-25T05:28:42.365Z,95497.17
2018-12-25T05:31:08.348Z,95489.27
2018-12-25T05:33:34.322Z,95489.37
2018-12-25T05:36:00.351Z,95489.27
2018-12-25T05:38:26.333Z,95495.72
2018-12-25T05:40:52.326Z,95497.86
2018-12-25T05:43:18.397Z,95508.50
2018-12-25T05:45:44.469Z,95510.97
2018-12-25T05:48:10.433Z,95518.64
2018-12-25T05:50:36.453Z,95515.15
2018-12-25T05:53:02.426Z,95523.55
2018-12-25T05:55:28.412Z,95516.48
2018-12-25T05:57:54.423Z,95515.07
2018-12-25T06:00:20.406Z,95519.48
2018-12-25T06:02:46.395Z,95515.07
2018-12-25T06:05:12.406Z,95516.06
2018-12-25T06:07:38.402Z,95519.74
2018-12-25T06:10:04.363Z,95525.38
2018-12-25T06:12:30.392Z,95531.64
2018-12-25T06:14:56.357Z,95531.11
2018-12-25T06:17:22.318Z,95538.18
2018-12-25T06:19:48.382Z,95540.00
2018-12-25T06:22:14.367Z,95543.50
2018-12-25T06:24:40.325Z,95549.73
2018-12-25T06:27:06.343Z,95546.66
2018-12-25T06:29:32.345Z,95539.63
2018-12-25T06:31:58.329Z,95555.97
2018-12-25T06:34:24.337Z,95562.95
2018-12-25T06:36:50.307Z,95554.64
2018-12-25T06:39:16.313Z,95557.83
2018-12-25T06:41:42.341Z,95564.89
2018-12-25T06:44:08.326Z,95560.06
2018-12-25T06:46:34.307Z,95567.21
2018-12-25T06:49:00.670Z,95559.65
2018-12-25T06:51:26.642Z,95565.58
2018-12-25T06:53:52.645Z,95569.88
2018-12-25T06:56:18.675Z,95560.91
2018-12-25T06:58:44.644Z,95571.55
2018-12-25T07:01:10.627Z,95564.70
2018-12-25T07:03:36.646Z,95553.41
2018-12-25T07:06:02.620Z,95560.98
2018-12-25T07:08:28.602Z,95557.41
2018-12-25T07:10:54.603Z,95568.13
2018-12-25T07:13:20.586Z,95564.25
2018-12-25T07:15:46.589Z,95562.99
2018-12-25T07:18:12.607Z,95560.25
2018-12-25T07:20:38.595Z,95564.73
2018-12-25T07:23:04.585Z,95552.34
2018-12-25T07:25:30.619Z,95557.59
2018-12-25T07:27:56.613Z,95562.39
2018-12-25T07:30:22.615Z,95566.06
2018-12-25T07:32:48.887Z,95575.30
2018-12-25T07:35:14.904Z,95580.70
2018-12-25T07:37:40.915Z,95582.14
2018-12-25T07:40:06.925Z,95582.87
2018-12-25T07:42:32.905Z,95591.66
2018-12-25T07:44:58.934Z,95588.00
2018-12-25T07:47:24.907Z,95584.50
2018-12-25T07:49:50.870Z,95585.57
2018-12-25T07:52:16.979Z,95581.16
2018-12-25T07:54:42.991Z,95583.33
2018-12-25T07:57:09.016Z,95591.20
2018-12-25T07:59:35.006Z,95590.89
2018-12-25T08:02:00.991Z,95589.22
2018-12-25T08:04:27.389Z,95579.34
2018-12-25T08:06:53.395Z,95577.25
2018-12-25T08:09:19.416Z,95582.08
2018-12-25T08:11:45.423Z,95590.48
2018-12-25T08:14:11.450Z,95604.38
2018-12-25T08:16:37.458Z,95603.28
2018-12-25T08:19:03.434Z,95610.32
2018-12-25T08:21:29.574Z,95603.91
2018-12-25T08:23:55.494Z,95600.33
2018-12-25T08:26:21.465Z,95602.91
2018-12-25T08:28:48.176Z,95613.56
2018-12-25T08:31:14.883Z,95604.97
2018-12-25T08:33:41.118Z,95606.38
2018-12-25T08:36:07.341Z,95606.72
2018-12-25T08:38:33.558Z,95601.78
2018-12-25T08:40:59.576Z,95591.11
2018-12-25T08:43:26.958Z,95587.36
2018-12-25T08:45:52.947Z,95595.45
2018-12-25T08:48:21.885Z,95599.34
2018-12-25T08:50:47.899Z,95588.44
2018-12-25T08:53:13.873Z,95589.45
2018-12-25T08:55:39.870Z,95572.23
2018-12-25T08:58:05.911Z,95583.42
2018-12-25T09:00:31.883Z,95583.53
2018-12-25T09:02:58.216Z,95590.41
2018-12-25T09:05:24.232Z,95584.48
2018-12-25T09:07:50.224Z,95581.36
2018-12-25T09:10:16.235Z,95588.86
2018-12-25T09:12:42.454Z,95586.19
2018-12-25T09:15:08.601Z,95581.36
2018-12-25T09:17:34.583Z,95582.20
2018-12-25T09:20:00.590Z,95577.30
2018-12-25T09:22:26.589Z,95574.94
2018-12-25T09:24:52.727Z,95578.52
2018-12-25T09:27:18.796Z,95575.36
2018-12-25T09:29:44.768Z,95561.41
2018-12-25T09:32:10.805Z,95574.82
2018-12-25T09:34:36.762Z,95589.84
2018-12-25T09:37:02.750Z,95583.72
2018-12-25T09:39:28.946Z,95591.09
2018-12-25T09:41:54.952Z,95581.36
2018-12-25T09:44:20.933Z,95582.88
2018-12-25T09:46:47.050Z,95587.18
2018-12-25T09:49:13.014Z,95581.97
2018-12-25T09:51:39.007Z,95580.14
2018-12-25T09:54:05.015Z,95578.39
2018-12-25T09:56:31.009Z,95579.31
2018-12-25T09:58:56.995Z,95582.05
2018-12-25T10:01:23.019Z,95565.51
2018-12-25T10:03:48.975Z,95569.16
2018-12-25T10:06:14.999Z,95570.77
2018-12-25T10:08:41.030Z,95566.02
2018-12-25T10:11:07.020Z,95564.09
2018-12-25T10:13:33.034Z,95555.73
2018-12-25T10:15:59.028Z,95555.91
2018-12-25T10:18:25.004Z,95545.99
2018-12-25T10:20:51.080Z,95537.93
2018-12-25T10:23:17.032Z,95538.61
2018-12-25T10:25:43.061Z,95531.23
2018-12-25T10:28:09.053Z,95549.07
2018-12-25T10:30:35.020Z,95543.75
2018-12-25T10:33:01.043Z,95542.23
2018-12-25T10:35:27.002Z,95555.50
2018-12-25T10:37:52.996Z,95545.60
2018-12-25T10:40:19.451Z,95534.11
2018-12-25T10:42:45.416Z,95530.12
2018-12-25T10:45:11.399Z,95528.68
2018-12-25T10:47:37.414Z,95528.29
2018-12-25T10:50:03.375Z,95536.66
2018-12-25T10:52:29.378Z,95528.29
2018-12-25T10:54:55.419Z,95525.30
2018-12-25T10:57:21.421Z,95519.59
2018-12-25T10:59:47.399Z,95505.45
2018-12-25T11:02:13.423Z,95509.02
2018-12-25T11:04:39.438Z,95509.81
2018-12-25T11:07:05.428Z,95501.53
2018-12-25T11:09:31.479Z,95518.64
2018-12-25T11:11:57.461Z,95515.38
2018-12-25T11:14:23.447Z,95510.39
2018-12-25T11:16:50.067Z,95509.28
2018-12-25T11:19:16.045Z,95506.97
2018-12-25T11:21:42.089Z,95503.78
2018-12-25T11:24:08.072Z,95510.42
2018-12-25T11:26:52.496Z,95507.73
2018-12-25T11:32:26.092Z,95503.36
2018-12-25T11:34:52.807Z,95517.27
2018-12-25T11:37:18.797Z,95516.66
2018-12-25T11:39:44.780Z,95514.25
2018-12-25T11:42:10.803Z,95508.09
2018-12-25T11:44:36.891Z,95512.20
2018-12-25T11:47:02.886Z,95519.27
2018-12-25T11:49:28.936Z,95519.34
2018-12-25T11:51:54.909Z,95519.02
2018-12-25T11:54:20.930Z,95519.55
2018-12-25T11:56:46.894Z,95512.75
2018-12-25T11:59:12.886Z,95513.28
2018-12-25T12:01:38.910Z,95512.25
2018-12-25T12:04:04.885Z,95513.20
2018-12-25T12:06:31.245Z,95513.47
2018-12-25T12:08:57.282Z,95523.81
2018-12-25T12:11:23.287Z,95526.85
2018-12-25T12:13:49.287Z,95527.64
2018-12-25T12:16:15.304Z,95528.14
2018-12-25T12:18:41.293Z,95529.44
2018-12-25T12:21:07.264Z,95537.23
2018-12-25T12:23:33.303Z,95550.80
2018-12-25T12:25:59.302Z,95552.18
2018-12-25T12:28:25.269Z,95552.36
2018-12-25T12:30:51.398Z,95552.18
2018-12-25T12:33:17.380Z,95555.25
2018-12-25T12:35:43.372Z,95552.67
2018-12-25T12:38:09.862Z,95561.27
2018-12-25T12:40:35.873Z,95553.77
2018-12-25T12:43:01.842Z,95562.36
2018-12-25T12:45:27.858Z,95558.98
2018-12-25T12:47:53.877Z,95559.39
2018-12-25T12:50:19.851Z,95562.13
2018-12-25T12:52:46.020Z,95561.71
2018-12-25T12:55:11.861Z,95561.56
2018-12-25T12:57:37.827Z,95566.95
2018-12-25T13:00:04.216Z,95562.73
2018-12-25T13:02:30.207Z,95560.00
2018-12-25T13:04:56.167Z,95556.08
2018-12-25T13:07:22.192Z,95565.20
2018-12-25T13:09:48.303Z,95565.70
2018-12-25T13:12:14.301Z,95568.89
2018-12-25T13:14:40.379Z,95567.22
2018-12-25T13:17:06.384Z,95557.52
2018-12-25T13:19:32.906Z,95565.31
2018-12-25T13:21:58.890Z,95569.08
2018-12-25T13:24:24.884Z,95567.70
2018-12-25T13:26:51.112Z,95570.18
2018-12-25T13:29:17.077Z,95569.11
2018-12-25T13:31:43.230Z,95569.83
2018-12-25T13:34:09.276Z,95564.16
2018-12-25T13:36:35.267Z,95577.39
2018-12-25T13:39:01.965Z,95582.30
2018-12-25T13:41:28.566Z,95590.92
2018-12-25T13:43:54.609Z,95587.97
2018-12-25T13:46:20.831Z,95592.48
2018-12-25T13:48:46.868Z,95596.30
2018-12-25T13:51:12.862Z,95595.16
2018-12-25T13:53:38.842Z,95595.34
2018-12-25T13:56:04.856Z,95596.37
2018-12-25T13:58:30.823Z,95593.30
2018-12-25T14:00:56.830Z,95606.89
2018-12-25T14:03:22.839Z,95606.55
2018-12-25T14:05:48.823Z,95600.84
2018-12-25T14:08:14.788Z,95609.92
2018-12-25T14:10:40.818Z,95613.91
2018-12-25T14:13:06.808Z,95622.33
2018-12-25T14:15:32.833Z,95620.24
2018-12-25T14:17:58.812Z,95622.38
2018-12-25T14:20:24.816Z,95623.98
2018-12-25T14:22:50.831Z,95613.27
2018-12-25T14:25:16.824Z,95624.11
2018-12-25T14:27:43.390Z,95632.52
2018-12-25T14:30:10.193Z,95642.17
2018-12-25T14:32:38.433Z,95634.57
2018-12-25T14:35:10.741Z,95638.38
2018-12-25T14:37:37.413Z,95637.58
2018-12-25T14:40:03.637Z,95635.15
2018-12-25T14:42:29.996Z,95648.16
2018-12-25T14:44:56.515Z,95648.81
2018-12-25T14:47:22.524Z,95642.96
2018-12-25T14:49:48.940Z,95644.57
2018-12-25T14:52:16.015Z,95652.38
2018-12-25T14:54:42.028Z,95646.44
2018-12-25T14:57:08.115Z,95648.58
2018-12-25T14:59:34.201Z,95655.95
2018-12-25T15:02:00.485Z,95651.66
2018-12-25T15:04:27.388Z,95645.84
2018-12-25T15:06:53.598Z,95651.47
2018-12-25T15:09:21.479Z,95655.20
2018-12-25T15:11:49.589Z,95657.26
2018-12-25T15:14:15.965Z,95654.48
2018-12-25T15:16:43.665Z,95660.16
2018-12-25T15:19:09.741Z,95663.80
2018-12-25T15:21:36.701Z,95665.75
2018-12-25T15:24:03.755Z,95672.81
2018-12-25T15:26:31.312Z,95672.33
2018-12-25T15:28:58.250Z,95669.91
2018-12-25T15:31:24.611Z,95665.65
2018-12-25T15:33:54.014Z,95670.18
2018-12-25T15:36:20.729Z,95675.66
2018-12-25T15:38:50.657Z,95674.03
2018-12-25T15:41:20.235Z,95676.58
2018-12-25T15:43:47.385Z,95680.83
2018-12-25T15:46:14.126Z,95674.41
2018-12-25T15:48:49.473Z,95679.42
2018-12-25T15:51:15.483Z,95672.42
2018-12-25T15:53:42.464Z,95682.14
2018-12-25T15:56:09.875Z,95679.30
2018-12-25T15:58:36.014Z,95678.26
2018-12-25T16:01:02.344Z,95679.30
2018-12-25T16:03:28.528Z,95678.53
2018-12-25T16:05:57.289Z,95681.57
2018-12-25T16:08:23.337Z,95687.94
2018-12-25T16:10:51.088Z,95680.17
2018-12-25T16:13:17.326Z,95679.26
2018-12-25T16:15:44.072Z,95682.27
2018-12-25T16:18:10.311Z,95685.97
2018-12-25T16:20:36.330Z,95693.39
2018-12-25T16:23:02.644Z,95688.14
2018-12-25T16:25:28.610Z,95695.33
2018-12-25T16:27:54.616Z,95701.20
2018-12-25T16:30:20.638Z,95696.73
2018-12-25T16:32:46.620Z,95699.85
2018-12-25T16:35:12.594Z,95711.45
2018-12-25T16:37:38.610Z,95710.55
2018-12-25T16:40:04.604Z,95708.65
2018-12-25T16:42:30.561Z,95718.41
2018-12-25T16:44:56.597Z,95719.84
2018-12-25T16:47:22.601Z,95722.32
2018-12-25T16:49:48.591Z,95721.95
2018-12-25T16:52:14.595Z,95723.59
2018-12-25T16:54:40.574Z,95723.70
2018-12-25T16:57:06.596Z,95717.95
2018-12-25T16:59:32.673Z,95728.06
2018-12-25T17:01:58.669Z,95728.27
2018-12-25T17:04:24.723Z,95721.72
2018-12-25T17:06:50.723Z,95724.83
2018-12-25T17:09:16.692Z,95724.38
2018-12-25T17:11:42.779Z,95717.48
2018-12-25T17:14:08.692Z,95724.75
2018-12-25T17:16:34.740Z,95733.01
2018-12-25T17:19:00.777Z,95727.69
2018-12-25T17:21:26.780Z,95733.97
2018-12-25T17:23:52.753Z,95736.70
2018-12-25T17:26:18.959Z,95741.37
2018-12-25T17:28:44.931Z,95736.96
2018-12-25T17:31:10.939Z,95750.93
2018-12-25T17:33:36.996Z,95738.45
2018-12-25T17:36:03.211Z,95741.19
2018-12-25T17:38:29.191Z,95732.47
2018-12-25T17:40:55.192Z,95739.67
2018-12-25T17:43:21.232Z,95738.16
2018-12-25T17:45:47.200Z,95740.06
2018-12-25T17:48:13.182Z,95743.45
2018-12-25T17:50:39.198Z,95747.00
2018-12-25T17:53:06.216Z,95745.55
2018-12-25T17:55:31.317Z,95756.09
2018-12-25T17:57:57.340Z,95760.75
2018-12-25T18:00:23.313Z,95758.55
2018-12-25T18:02:50.758Z,95751.36
2018-12-25T18:05:16.757Z,95749.72
2018-12-25T18:07:42.724Z,95751.50
2018-12-25T18:10:08.771Z,95748.45
2018-12-25T18:12:34.750Z,95752.00
2018-12-25T18:15:00.772Z,95750.09
2018-12-25T18:17:26.753Z,95757.36
2018-12-25T18:19:52.818Z,95749.98
2018-12-25T18:22:18.806Z,95752.27
2018-12-25T18:24:44.792Z,95756.73
2018-12-25T18:27:10.787Z,95756.73
2018-12-25T18:29:36.799Z,95745.66
2018-12-25T18:32:02.815Z,95754.17
2018-12-25T18:34:28.779Z,95753.00
2018-12-25T18:36:55.084Z,95753.31
2018-12-25T18:39:21.052Z,95744.71
2018-12-25T18:41:48.925Z,95748.82
2018-12-25T18:44:13.562Z,95749.55
2018-12-25T18:46:39.550Z,95750.46
2018-12-25T18:49:05.555Z,95762.29
2018-12-25T18:51:31.534Z,95756.73
2018-12-25T18:53:57.577Z,95758.06
2018-12-25T18:56:23.639Z,95760.04
2018-12-25T18:58:49.629Z,95761.33
2018-12-25T19:01:15.596Z,95755.32
2018-12-25T19:03:41.682Z,95762.56
2018-12-25T19:06:07.682Z,95760.31
2018-12-25T19:08:33.651Z,95763.36
2018-12-25T19:10:59.670Z,95768.27
2018-12-25T19:13:25.657Z,95763.36
2018-12-25T19:15:51.619Z,95767.37
2018-12-25T19:18:17.640Z,95757.65
2018-12-25T19:20:43.598Z,95756.86
2018-12-25T19:23:09.607Z,95763.64
2018-12-25T19:25:35.638Z,95762.91
2018-12-25T19:28:01.618Z,95775.17
2018-12-25T19:30:27.633Z,95776.38
2018-12-25T19:32:53.712Z,95778.67
2018-12-25T19:35:19.708Z,95775.47
2018-12-25T19:37:45.727Z,95784.26
2018-12-25T19:40:11.710Z,95785.55
2018-12-25T19:42:37.682Z,95789.55
2018-12-25T19:45:03.722Z,95780.52
2018-12-25T19:47:29.710Z,95785.82
2018-12-25T19:49:55.748Z,95791.35
2018-12-25T19:52:21.748Z,95790.44
2018-12-25T19:54:47.731Z,95802.59
2018-12-25T19:57:13.783Z,95806.28
2018-12-25T19:59:39.786Z,95812.03
2018-12-25T20:02:05.782Z,95811.08
2018-12-25T20:04:31.793Z,95812.77
2018-12-25T20:06:57.765Z,95815.13
2018-12-25T20:09:23.757Z,95811.25
2018-12-25T20:11:49.768Z,95811.80
2018-12-25T20:14:15.729Z,95811.39
2018-12-25T20:16:41.713Z,95809.02
2018-12-25T20:19:07.745Z,95816.36
2018-12-25T20:21:33.712Z,95817.20
2018-12-25T20:23:59.688Z,95819.68
2018-12-25T20:26:25.712Z,95826.28
2018-12-25T20:28:51.820Z,95827.38
2018-12-25T20:31:17.711Z,95821.73
2018-12-25T20:33:43.736Z,95832.22
2018-12-25T20:36:09.715Z,95824.45
2018-12-25T20:38:35.795Z,95824.22
2018-12-25T20:41:01.828Z,95830.09
2018-12-25T20:43:27.808Z,95830.93
2018-12-25T20:45:53.818Z,95832.57
2018-12-25T20:48:19.847Z,95835.70
2018-12-25T20:50:45.824Z,95834.55
2018-12-25T20:53:11.972Z,95843.84
2018-12-25T20:55:37.964Z,95844.48
2018-12-25T20:58:03.930Z,95840.15
2018-12-25T21:00:29.980Z,95835.19
2018-12-25T21:02:55.958Z,95838.69
2018-12-25T21:05:21.932Z,95840.33
2018-12-25T21:07:49.306Z,95842.19
2018-12-25T21:10:13.900Z,95843.16
2018-12-25T21:12:39.867Z,95840.48
2018-12-25T21:15:05.907Z,95849.75
2018-12-25T21:17:31.870Z,95842.36
2018-12-25T21:19:57.854Z,95838.67
2018-12-25T21:22:23.880Z,95841.11
2018-12-25T21:24:49.862Z,95842.17
2018-12-25T21:27:15.867Z,95851.58
2018-12-25T21:29:41.858Z,95848.84
2018-12-25T21:32:07.879Z,95847.54
2018-12-25T21:34:33.878Z,95845.35
2018-12-25T21:36:59.879Z,95842.92
2018-12-25T21:39:25.869Z,95847.83
2018-12-25T21:41:51.893Z,95841.48
2018-12-25T21:44:17.873Z,95840.48
2018-12-25T21:46:43.878Z,95840.75
2018-12-25T21:49:09.999Z,95841.71
2018-12-25T21:51:36.403Z,95845.11
2018-12-25T21:54:04.382Z,95844.53
2018-12-25T21:56:29.337Z,95845.52
2018-12-25T21:58:58.301Z,95843.35
2018-12-25T22:01:26.407Z,95850.56
2018-12-25T22:03:50.503Z,95849.26
2018-12-25T22:06:16.510Z,95840.37
2018-12-25T22:08:42.522Z,95847.43
2018-12-25T22:11:08.557Z,95846.87
2018-12-25T22:13:34.632Z,95859.58
2018-12-25T22:16:00.684Z,95862.14
2018-12-25T22:18:34.059Z,95866.14
2018-12-25T22:21:00.246Z,95868.50
2018-12-25T22:23:26.570Z,95872.62
2018-12-25T22:25:53.047Z,95861.45
2018-12-25T22:28:19.192Z,95865.95
2018-12-25T22:30:45.237Z,95862.50
2018-12-25T22:33:13.477Z,95863.02
2018-12-25T22:35:37.570Z,95863.06
2018-12-25T22:38:03.784Z,95857.50
2018-12-25T22:40:29.855Z,95860.06
2018-12-25T22:42:55.846Z,95844.48
2018-12-25T22:45:21.835Z,95843.21
2018-12-25T22:47:47.858Z,95839.90
2018-12-25T22:50:13.861Z,95833.16
2018-12-25T22:52:39.838Z,95840.63
2018-12-25T22:55:05.887Z,95849.65
2018-12-25T22:57:31.866Z,95856.20
2018-12-25T22:59:57.826Z,95853.77
2018-12-25T23:02:23.863Z,95852.73
2018-12-25T23:04:49.838Z,95852.63
2018-12-25T23:07:15.834Z,95853.88
2018-12-25T23:09:41.882Z,95849.46
2018-12-25T23:12:07.905Z,95843.45
2018-12-25T23:14:33.880Z,95850.48
2018-12-25T23:16:59.931Z,95838.98
2018-12-25T23:19:26.003Z,95843.59
2018-12-25T23:21:53.527Z,95845.54
2018-12-25T23:24:18.070Z,95844.44
2018-12-25T23:26:44.076Z,95845.95
2018-12-25T23:29:10.090Z,95854.13
2018-12-25T23:31:36.133Z,95852.67
2018-12-25T23:34:02.181Z,95855.34
2018-12-25T23:36:28.148Z,95859.10
2018-12-25T23:38:54.200Z,95862.79
2018-12-25T23:41:20.176Z,95865.77
2018-12-25T23:43:46.204Z,95867.94
2018-12-25T23:46:12.221Z,95870.30
2018-12-25T23:48:38.206Z,95869.92
2018-12-25T23:51:04.188Z,95869.31
2018-12-25T23:53:30.328Z,95872.24
2018-12-25T23:55:56.355Z,95870.65
2018-12-25T23:58:22.355Z,95879.83
